createdAt,value
2017-12-14T00:01:08.419Z,0.77
2017-12-14T00:03:37.818Z,0.83
2017-12-14T00:06:06.195Z,0.70
2017-12-14T00:08:34.571Z,0.60
2017-12-14T00:11:03.598Z,0.73
2017-12-14T00:13:31.995Z,1.00
2017-12-14T00:16:00.426Z,0.93
2017-12-14T00:18:28.950Z,1.23
2017-12-14T00:20:57.325Z,0.70
2017-12-14T00:23:26.557Z,0.80
2017-12-14T00:25:55.141Z,0.70
2017-12-14T00:28:23.584Z,0.80
2017-12-14T00:30:51.964Z,0.63
2017-12-14T00:33:20.478Z,0.50
2017-12-14T00:35:48.880Z,0.50
2017-12-14T00:38:17.262Z,0.60
2017-12-14T00:40:45.837Z,0.97
2017-12-14T00:43:14.275Z,1.17
2017-12-14T00:45:42.711Z,1.17
2017-12-14T00:48:11.317Z,1.00
2017-12-14T00:50:40.551Z,0.67
2017-12-14T00:53:09.409Z,0.77
2017-12-14T00:55:37.918Z,0.50
2017-12-14T00:58:06.376Z,0.70
2017-12-14T01:00:34.784Z,0.53
2017-12-14T01:03:03.517Z,0.47
2017-12-14T01:05:32.839Z,0.90
2017-12-14T01:08:01.283Z,0.77
2017-12-14T01:10:30.576Z,1.03
2017-12-14T01:12:59.134Z,1.00
2017-12-14T01:15:27.687Z,1.10
2017-12-14T01:17:56.561Z,0.80
2017-12-14T01:20:25.053Z,1.00
2017-12-14T01:22:54.217Z,0.90
2017-12-14T01:25:23.911Z,1.13
2017-12-14T01:27:52.310Z,1.20
2017-12-14T01:30:20.904Z,2.77
2017-12-14T01:32:50.296Z,1.00
2017-12-14T01:35:18.685Z,1.17
2017-12-14T01:37:47.852Z,1.40
2017-12-14T01:40:16.276Z,1.20
2017-12-14T01:42:45.465Z,1.73
2017-12-14T01:45:13.856Z,1.20
2017-12-14T01:47:42.345Z,0.50
2017-12-14T01:50:10.735Z,0.60
2017-12-14T01:52:39.105Z,1.10
2017-12-14T01:55:07.901Z,1.30
2017-12-14T01:57:36.276Z,1.10
2017-12-14T02:00:04.647Z,0.97
2017-12-14T02:02:33.211Z,1.30
2017-12-14T02:05:02.365Z,1.40
2017-12-14T02:07:30.771Z,0.87
2017-12-14T02:09:59.344Z,1.40
2017-12-14T02:12:27.703Z,1.10
2017-12-14T02:14:56.381Z,1.20
2017-12-14T02:17:26.150Z,0.93
2017-12-14T02:19:55.333Z,0.80
2017-12-14T02:22:23.746Z,1.20
2017-12-14T02:24:53.415Z,1.13
2017-12-14T02:27:21.812Z,0.80
2017-12-14T02:29:50.970Z,1.33
2017-12-14T02:32:19.664Z,1.10
2017-12-14T02:34:48.036Z,1.03
2017-12-14T02:37:16.413Z,1.07
2017-12-14T02:39:45.002Z,0.80
2017-12-14T02:42:13.372Z,0.60
2017-12-14T02:44:43.319Z,1.57
2017-12-14T02:47:12.519Z,0.90
2017-12-14T02:49:41.671Z,0.60
2017-12-14T02:52:10.035Z,1.03
2017-12-14T02:54:38.461Z,0.60
2017-12-14T02:57:06.933Z,0.60
2017-12-14T02:59:35.322Z,1.43
2017-12-14T03:02:04.062Z,1.07
2017-12-14T03:04:32.484Z,0.97
2017-12-14T03:07:00.852Z,0.60
2017-12-14T03:09:29.387Z,1.10
2017-12-14T03:11:57.770Z,1.17
2017-12-14T03:14:26.165Z,1.00
2017-12-14T03:16:54.694Z,0.30
2017-12-14T03:19:24.205Z,1.03
2017-12-14T03:21:52.591Z,0.80
2017-12-14T03:24:21.879Z,0.63
2017-12-14T03:26:50.264Z,0.93
2017-12-14T03:29:19.424Z,1.80
2017-12-14T03:31:47.864Z,0.67
2017-12-14T03:34:16.324Z,0.43
2017-12-14T03:36:45.479Z,0.83
2017-12-14T03:39:14.305Z,0.53
2017-12-14T03:41:43.483Z,0.73
2017-12-14T03:44:11.890Z,0.73
2017-12-14T03:46:42.077Z,1.17
2017-12-14T03:49:10.518Z,0.90
2017-12-14T03:51:38.932Z,0.47
2017-12-14T03:54:07.515Z,0.30
2017-12-14T03:56:35.882Z,0.50
2017-12-14T03:59:04.386Z,0.50
2017-12-14T04:01:32.901Z,1.30
2017-12-14T04:04:02.045Z,1.00
2017-12-14T04:06:30.468Z,1.07
2017-12-14T04:08:59.707Z,0.50
2017-12-14T04:11:28.230Z,0.97
2017-12-14T04:13:56.689Z,0.60
2017-12-14T04:16:25.447Z,0.90
2017-12-14T04:18:54.174Z,0.77
2017-12-14T04:21:22.614Z,1.00
2017-12-14T04:23:51.208Z,0.50
2017-12-14T04:26:19.642Z,1.40
2017-12-14T04:28:48.097Z,1.20
2017-12-14T04:31:16.640Z,1.30
2017-12-14T04:33:45.056Z,0.80
2017-12-14T04:36:13.667Z,0.70
2017-12-14T04:38:42.993Z,0.50
2017-12-14T04:41:11.376Z,0.50
2017-12-14T04:43:41.388Z,0.50
2017-12-14T04:46:09.923Z,0.87
2017-12-14T04:48:38.387Z,0.50
2017-12-14T04:51:07.683Z,0.40
2017-12-14T04:53:36.145Z,0.90
2017-12-14T04:56:04.585Z,0.70
2017-12-14T04:58:33.796Z,0.50
2017-12-14T05:01:03.119Z,0.80
2017-12-14T05:03:31.542Z,0.50
2017-12-14T05:05:59.995Z,0.53
2017-12-14T05:08:28.572Z,0.60
2017-12-14T05:10:56.997Z,0.40
2017-12-14T05:13:25.435Z,0.40
2017-12-14T05:15:53.936Z,0.70
2017-12-14T05:18:22.360Z,0.40
2017-12-14T05:20:51.871Z,0.50
2017-12-14T05:23:21.109Z,0.40
2017-12-14T05:25:49.566Z,0.40
2017-12-14T05:28:18.034Z,0.40
2017-12-14T05:30:47.613Z,0.50
2017-12-14T05:33:16.050Z,0.57
2017-12-14T05:35:44.528Z,0.53
2017-12-14T05:38:13.595Z,0.40
2017-12-14T05:40:42.789Z,0.47
2017-12-14T05:43:12.023Z,0.40
2017-12-14T05:45:41.441Z,0.60
2017-12-14T05:48:09.867Z,0.40
2017-12-14T05:50:39.118Z,0.40
2017-12-14T05:53:08.985Z,0.50
2017-12-14T05:55:38.208Z,0.43
2017-12-14T05:58:06.627Z,0.40
2017-12-14T06:00:35.124Z,0.50
2017-12-14T06:03:03.631Z,0.60
2017-12-14T06:05:32.118Z,1.80
2017-12-14T06:08:00.602Z,0.87
2017-12-14T06:10:29.038Z,0.70
2017-12-14T06:12:57.533Z,0.50
2017-12-14T06:15:27.134Z,0.60
2017-12-14T06:17:55.581Z,0.50
2017-12-14T06:20:24.002Z,0.60
2017-12-14T06:22:52.756Z,0.53
2017-12-14T06:25:21.213Z,0.70
2017-12-14T06:27:49.715Z,0.50
2017-12-14T06:30:18.280Z,0.60
2017-12-14T06:32:46.727Z,0.60
2017-12-14T06:35:15.938Z,0.60
2017-12-14T06:37:44.392Z,0.60
2017-12-14T06:40:13.131Z,0.53
2017-12-14T06:42:41.558Z,0.50
2017-12-14T06:45:10.070Z,0.60
2017-12-14T06:47:39.567Z,0.50
2017-12-14T06:50:08.005Z,1.03
2017-12-14T06:52:36.920Z,0.40
2017-12-14T06:55:06.137Z,0.50
2017-12-14T06:57:34.563Z,0.53
2017-12-14T07:00:03.155Z,0.80
2017-12-14T07:02:31.611Z,0.80
2017-12-14T07:05:00.105Z,0.53
2017-12-14T07:07:28.710Z,0.80
2017-12-14T07:09:57.129Z,1.00
2017-12-14T07:12:25.605Z,0.83
2017-12-14T07:14:54.402Z,1.70
2017-12-14T07:17:22.881Z,1.73
2017-12-14T07:19:51.340Z,1.13
2017-12-14T07:22:20.760Z,0.70
2017-12-14T07:24:49.413Z,1.20
2017-12-14T07:27:18.686Z,1.47
2017-12-14T07:29:47.454Z,1.10
2017-12-14T07:32:15.887Z,1.70
2017-12-14T07:34:44.341Z,1.63
2017-12-14T07:37:12.966Z,1.63
2017-12-14T07:39:42.207Z,1.23
2017-12-14T07:42:22.729Z,1.50
2017-12-14T07:44:51.580Z,1.20
2017-12-14T07:47:32.307Z,1.30
2017-12-14T07:50:00.748Z,1.10
2017-12-14T07:52:29.208Z,1.13
2017-12-14T07:54:57.777Z,0.93
2017-12-14T07:57:26.211Z,1.53
2017-12-14T07:59:55.433Z,1.57
2017-12-14T08:02:23.952Z,1.33
2017-12-14T08:04:52.500Z,1.20
2017-12-14T08:07:20.945Z,1.57
2017-12-14T08:09:50.186Z,1.37
2017-12-14T08:12:18.589Z,1.33
2017-12-14T08:14:47.025Z,1.70
2017-12-14T08:17:15.692Z,1.07
2017-12-14T08:19:44.902Z,1.20
2017-12-14T08:22:13.394Z,1.10
2017-12-14T08:24:41.998Z,1.37
2017-12-14T08:27:11.066Z,1.47
2017-12-14T08:29:39.557Z,1.20
2017-12-14T08:32:08.421Z,1.17
2017-12-14T08:34:37.626Z,1.40
2017-12-14T08:37:06.839Z,0.80
2017-12-14T08:39:35.327Z,1.00
2017-12-14T08:42:03.797Z,1.43
2017-12-14T08:44:32.227Z,0.83
2017-12-14T08:47:00.750Z,1.23
2017-12-14T08:49:29.190Z,1.30
2017-12-14T08:51:57.625Z,1.67
2017-12-14T08:54:26.368Z,1.73
2017-12-14T08:56:54.949Z,1.53
2017-12-14T08:59:23.389Z,1.40
2017-12-14T09:01:51.988Z,0.73
2017-12-14T09:04:20.412Z,1.27
2017-12-14T09:06:50.583Z,1.27
2017-12-14T09:09:19.041Z,1.13
2017-12-14T09:11:47.487Z,1.40
2017-12-14T09:14:16.708Z,0.87
2017-12-14T09:16:45.253Z,1.87
2017-12-14T09:19:13.987Z,1.13
2017-12-14T09:21:42.417Z,0.70
2017-12-14T09:24:11.240Z,1.63
2017-12-14T09:26:39.733Z,1.13
2017-12-14T09:29:08.398Z,1.00
2017-12-14T09:31:37.672Z,0.47
2017-12-14T09:34:06.116Z,1.20
2017-12-14T09:36:34.606Z,1.00
2017-12-14T09:39:03.346Z,0.93
2017-12-14T09:41:32.611Z,1.50
2017-12-14T09:44:01.074Z,1.60
2017-12-14T09:46:29.692Z,1.57
2017-12-14T09:48:58.200Z,0.77
2017-12-14T09:51:26.735Z,1.53
2017-12-14T09:53:55.456Z,0.70
2017-12-14T09:56:24.754Z,1.33
2017-12-14T09:58:54.089Z,0.77
2017-12-14T10:01:22.964Z,1.00
2017-12-14T10:03:52.172Z,1.03
2017-12-14T10:06:20.627Z,1.33
2017-12-14T10:08:49.416Z,1.20
2017-12-14T10:11:17.871Z,1.50
2017-12-14T10:13:46.290Z,1.50
2017-12-14T10:16:14.975Z,0.97
2017-12-14T10:18:44.238Z,0.60
2017-12-14T10:21:12.792Z,2.20
2017-12-14T10:23:41.869Z,2.07
2017-12-14T10:26:10.366Z,1.53
2017-12-14T10:28:38.856Z,2.00
2017-12-14T10:31:08.316Z,0.67
2017-12-14T10:33:37.525Z,1.60
2017-12-14T10:36:05.976Z,1.37
2017-12-14T10:38:35.484Z,0.97
2017-12-14T10:41:03.980Z,1.13
2017-12-14T10:43:33.284Z,1.00
2017-12-14T10:46:01.984Z,1.33
2017-12-14T10:48:30.457Z,1.20
2017-12-14T10:50:58.912Z,0.70
2017-12-14T10:53:27.597Z,1.57
2017-12-14T10:55:56.087Z,1.10
2017-12-14T10:58:24.623Z,1.67
2017-12-14T11:00:59.638Z,1.67
2017-12-14T11:03:28.108Z,0.80
2017-12-14T11:05:56.570Z,1.23
2017-12-14T11:08:26.017Z,1.87
2017-12-14T11:10:54.480Z,2.07
2017-12-14T11:13:22.950Z,0.97
2017-12-14T11:15:51.837Z,1.00
2017-12-14T11:18:20.337Z,1.00
2017-12-14T11:20:49.184Z,0.70
2017-12-14T11:23:18.541Z,1.30
2017-12-14T11:25:47.044Z,1.20
2017-12-14T11:28:15.496Z,0.60
2017-12-14T11:30:44.223Z,0.90
2017-12-14T11:33:13.063Z,0.50
2017-12-14T11:35:41.499Z,0.73
2017-12-14T11:38:10.029Z,0.97
2017-12-14T11:40:38.509Z,0.70
2017-12-14T11:43:06.984Z,0.73
2017-12-14T11:45:36.254Z,0.90
2017-12-14T11:48:04.758Z,1.07
2017-12-14T11:50:33.238Z,1.70
2017-12-14T11:53:01.933Z,0.70
2017-12-14T11:55:30.398Z,1.00
2017-12-14T11:57:59.516Z,0.63
2017-12-14T12:00:28.110Z,1.10
2017-12-14T12:02:57.377Z,1.20
2017-12-14T12:05:25.876Z,0.80
2017-12-14T12:07:54.402Z,0.90
2017-12-14T12:10:23.219Z,1.40
2017-12-14T12:12:51.762Z,1.37
2017-12-14T12:15:20.689Z,1.10
2017-12-14T12:17:49.153Z,0.60
2017-12-14T12:20:18.246Z,1.90
2017-12-14T12:22:47.205Z,1.33
2017-12-14T12:25:16.112Z,1.87
2017-12-14T12:27:44.759Z,1.40
2017-12-14T12:30:13.407Z,1.77
2017-12-14T12:32:42.654Z,1.80
2017-12-14T12:35:11.368Z,2.27
2017-12-14T12:37:40.050Z,1.43
2017-12-14T12:40:08.488Z,2.43
2017-12-14T12:42:36.951Z,2.43
2017-12-14T12:45:06.264Z,1.90
2017-12-14T12:47:34.841Z,1.03
2017-12-14T12:50:03.386Z,1.27
2017-12-14T12:52:32.103Z,2.13
2017-12-14T12:55:00.545Z,1.60
2017-12-14T12:57:28.988Z,3.40
2017-12-14T12:59:58.443Z,1.40
2017-12-14T13:02:26.899Z,1.47
2017-12-14T13:04:55.378Z,1.13
2017-12-14T13:07:24.158Z,0.90
2017-12-14T13:09:54.116Z,1.60
2017-12-14T13:12:22.713Z,1.93
2017-12-14T13:14:52.069Z,1.03
2017-12-14T13:17:21.317Z,1.60
2017-12-14T13:19:50.527Z,2.13
2017-12-14T13:22:20.014Z,1.50
2017-12-14T13:24:49.463Z,2.13
2017-12-14T13:27:17.956Z,1.43
2017-12-14T13:29:46.484Z,1.37
2017-12-14T13:32:15.701Z,1.70
2017-12-14T13:34:44.135Z,1.30
2017-12-14T13:37:13.331Z,1.27
2017-12-14T13:39:41.758Z,0.57
2017-12-14T13:42:10.208Z,1.07
2017-12-14T13:44:38.818Z,1.13
2017-12-14T13:47:07.302Z,1.33
2017-12-14T13:49:36.725Z,2.10
2017-12-14T13:52:06.158Z,1.63
2017-12-14T13:54:34.644Z,0.80
2017-12-14T13:57:03.076Z,1.43
2017-12-14T13:59:31.599Z,2.00
2017-12-14T14:02:00.564Z,1.97
2017-12-14T14:04:29.000Z,0.70
2017-12-14T14:06:58.721Z,1.40
2017-12-14T14:09:28.162Z,0.60
2017-12-14T14:11:57.739Z,1.13
2017-12-14T14:14:27.194Z,0.77
2017-12-14T14:16:55.626Z,0.70
2017-12-14T14:19:24.053Z,1.03
2017-12-14T14:21:52.665Z,0.80
2017-12-14T14:24:21.058Z,0.90
2017-12-14T14:26:50.271Z,0.90
2017-12-14T14:29:18.871Z,1.33
2017-12-14T14:31:47.327Z,1.10
2017-12-14T14:34:16.542Z,0.90
2017-12-14T14:36:45.183Z,1.10
2017-12-14T14:39:14.084Z,1.23
2017-12-14T14:41:42.545Z,1.93
2017-12-14T14:44:11.128Z,1.00
2017-12-14T14:46:39.533Z,1.60
2017-12-14T14:49:08.032Z,1.20
2017-12-14T14:51:36.854Z,0.80
2017-12-14T14:54:05.960Z,0.90
2017-12-14T14:56:35.204Z,1.50
2017-12-14T14:59:05.688Z,1.47
2017-12-14T15:01:34.158Z,1.23
2017-12-14T15:04:02.667Z,1.23
2017-12-14T15:06:31.202Z,0.63
2017-12-14T15:08:59.761Z,1.00
2017-12-14T15:11:29.972Z,1.03
2017-12-14T15:13:59.432Z,1.10
2017-12-14T15:16:29.314Z,1.00
2017-12-14T15:18:58.348Z,1.40
2017-12-14T15:21:28.496Z,0.73
2017-12-14T15:23:58.053Z,1.23
2017-12-14T15:26:28.391Z,1.17
2017-12-14T15:28:57.503Z,2.13
2017-12-14T15:31:27.146Z,0.87
2017-12-14T15:33:57.140Z,0.73
2017-12-14T15:36:26.123Z,1.10
2017-12-14T15:38:55.028Z,1.00
2017-12-14T15:41:24.189Z,1.17
2017-12-14T15:43:52.865Z,0.90
2017-12-14T15:46:21.532Z,1.03
2017-12-14T15:48:50.240Z,1.33
2017-12-14T15:51:18.976Z,0.87
2017-12-14T15:53:47.864Z,1.83
2017-12-14T15:56:16.899Z,1.13
2017-12-14T15:58:46.851Z,1.33
2017-12-14T16:01:15.289Z,1.20
2017-12-14T16:03:43.937Z,0.97
2017-12-14T16:06:12.708Z,1.10
2017-12-14T16:08:42.103Z,0.90
2017-12-14T16:11:10.844Z,1.83
2017-12-14T16:13:39.257Z,1.40
2017-12-14T16:16:08.633Z,1.40
2017-12-14T16:18:37.380Z,1.53
2017-12-14T16:21:05.788Z,1.00
2017-12-14T16:23:35.858Z,0.70
2017-12-14T16:26:04.600Z,1.00
2017-12-14T16:28:33.014Z,1.20
2017-12-14T16:31:01.506Z,0.97
2017-12-14T16:33:29.996Z,1.53
2017-12-14T16:35:58.415Z,1.13
2017-12-14T16:38:26.806Z,1.23
2017-12-14T16:40:55.535Z,1.10
2017-12-14T16:43:24.644Z,0.93
2017-12-14T16:45:53.908Z,0.80
2017-12-14T16:48:22.826Z,0.70
2017-12-14T16:50:51.362Z,1.30
2017-12-14T16:53:19.780Z,1.03
2017-12-14T16:55:48.312Z,0.80
2017-12-14T16:58:16.712Z,1.10
2017-12-14T17:00:45.176Z,1.50
2017-12-14T17:03:13.816Z,1.30
2017-12-14T17:05:42.265Z,0.50
2017-12-14T17:08:11.601Z,0.70
2017-12-14T17:10:40.177Z,0.63
2017-12-14T17:13:08.594Z,1.13
2017-12-14T17:15:37.039Z,1.10
2017-12-14T17:18:06.247Z,0.73
2017-12-14T17:20:34.659Z,1.07
2017-12-14T17:23:03.066Z,0.90
2017-12-14T17:25:31.680Z,1.20
2017-12-14T17:28:00.130Z,1.00
2017-12-14T17:30:28.542Z,1.50
2017-12-14T17:32:57.349Z,0.97
2017-12-14T17:35:27.439Z,1.13
2017-12-14T17:37:55.850Z,1.50
2017-12-14T17:40:25.233Z,1.57
2017-12-14T17:42:53.635Z,1.67
2017-12-14T17:45:23.302Z,1.63
2017-12-14T17:47:51.868Z,1.73
2017-12-14T17:50:20.271Z,1.13
2017-12-14T17:52:48.758Z,1.87
2017-12-14T17:55:17.283Z,1.63
2017-12-14T17:57:46.011Z,2.43
2017-12-14T18:00:14.434Z,3.60
2017-12-14T18:02:42.907Z,3.10
2017-12-14T18:05:11.362Z,3.07
2017-12-14T18:07:40.475Z,2.77
2017-12-14T18:10:09.076Z,2.67
2017-12-14T18:12:38.520Z,3.40
2017-12-14T18:15:08.036Z,1.60
2017-12-14T18:17:36.502Z,3.50
2017-12-14T18:20:04.951Z,3.93
2017-12-14T18:22:34.292Z,3.27
2017-12-14T18:25:02.807Z,3.67
2017-12-14T18:27:31.576Z,4.50
2017-12-14T18:29:59.999Z,4.70
2017-12-14T18:32:28.605Z,1.77
2017-12-14T18:34:57.932Z,3.50
2017-12-14T18:37:26.426Z,3.10
2017-12-14T18:39:55.965Z,3.07
2017-12-14T18:42:27.074Z,4.77
2017-12-14T18:44:55.523Z,4.40
2017-12-14T18:47:25.383Z,1.97
2017-12-14T18:49:53.819Z,5.00
2017-12-14T18:52:24.061Z,3.80
2017-12-14T18:54:52.588Z,2.47
2017-12-14T18:57:21.783Z,3.53
2017-12-14T18:59:51.001Z,3.07
2017-12-14T19:02:19.554Z,3.37
2017-12-14T19:04:47.982Z,5.80
2017-12-14T19:07:16.402Z,3.77
2017-12-14T19:09:45.028Z,3.10
2017-12-14T19:12:13.699Z,5.33
2017-12-14T19:14:42.905Z,3.00
2017-12-14T19:17:11.474Z,4.80
2017-12-14T19:19:41.437Z,4.07
2017-12-14T19:22:09.860Z,2.70
2017-12-14T19:24:39.272Z,3.60
2017-12-14T19:27:08.466Z,2.27
2017-12-14T19:29:36.879Z,1.90
2017-12-14T19:32:05.536Z,3.80
2017-12-14T19:34:34.724Z,1.43
2017-12-14T19:37:03.238Z,2.93
2017-12-14T19:39:31.797Z,2.30
2017-12-14T19:42:00.949Z,1.50
2017-12-14T19:44:29.439Z,2.27
2017-12-14T19:46:58.007Z,3.37
2017-12-14T19:49:27.073Z,2.20
2017-12-14T19:51:55.504Z,1.07
2017-12-14T19:54:23.988Z,2.57
2017-12-14T19:56:52.428Z,1.13
2017-12-14T19:59:20.839Z,1.87
2017-12-14T20:01:49.374Z,1.90
2017-12-14T20:04:17.782Z,4.23
2017-12-14T20:06:46.963Z,2.83
2017-12-14T20:09:15.718Z,2.87
2017-12-14T20:11:44.855Z,2.40
2017-12-14T20:14:13.304Z,2.00
2017-12-14T20:16:42.543Z,3.03
2017-12-14T20:19:11.001Z,2.80
2017-12-14T20:21:40.227Z,3.17
2017-12-14T20:24:08.702Z,4.20
2017-12-14T20:26:37.173Z,3.50
2017-12-14T20:29:05.652Z,2.67
2017-12-14T20:31:34.535Z,4.10
2017-12-14T20:34:03.008Z,4.20
2017-12-14T20:36:31.449Z,3.77
2017-12-14T20:38:59.896Z,2.77
2017-12-14T20:41:28.309Z,3.63
2017-12-14T20:43:56.740Z,4.03
2017-12-14T20:46:25.574Z,4.70
2017-12-14T20:48:54.013Z,2.30
2017-12-14T20:51:23.117Z,3.67
2017-12-14T20:53:51.754Z,4.47
2017-12-14T20:56:20.196Z,3.33
2017-12-14T20:58:49.464Z,3.30
2017-12-14T21:01:18.102Z,4.63
2017-12-14T21:03:46.557Z,2.80
2017-12-14T21:06:14.975Z,3.23
2017-12-14T21:08:43.561Z,4.47
2017-12-14T21:11:12.010Z,3.43
2017-12-14T21:13:40.406Z,2.97
2017-12-14T21:16:09.007Z,4.80
2017-12-14T21:18:38.215Z,3.10
2017-12-14T21:21:07.919Z,3.47
2017-12-14T21:23:37.258Z,4.00
2017-12-14T21:26:05.667Z,2.43
2017-12-14T21:28:34.084Z,2.53
2017-12-14T21:31:03.438Z,3.40
2017-12-14T21:33:31.838Z,2.70
2017-12-14T21:36:00.274Z,5.90
2017-12-14T21:38:28.855Z,2.47
2017-12-14T21:40:57.352Z,2.60
2017-12-14T21:43:25.808Z,3.70
2017-12-14T21:45:54.431Z,4.40
2017-12-14T21:48:22.847Z,7.27
2017-12-14T21:50:52.042Z,4.37
2017-12-14T21:53:21.753Z,4.90
2017-12-14T21:55:50.969Z,3.63
2017-12-14T21:58:19.432Z,3.30
2017-12-14T22:00:48.700Z,4.67
2017-12-14T22:03:17.457Z,4.93
2017-12-14T22:05:46.082Z,2.13
2017-12-14T22:08:14.674Z,2.37
2017-12-14T22:10:43.085Z,3.13
2017-12-14T22:13:11.476Z,5.73
2017-12-14T22:15:39.922Z,3.87
2017-12-14T22:18:09.099Z,3.43
2017-12-14T22:20:37.514Z,4.47
2017-12-14T22:23:05.988Z,5.67
2017-12-14T22:25:35.196Z,2.43
2017-12-14T22:28:03.641Z,3.90
2017-12-14T22:30:33.093Z,3.40
2017-12-14T22:33:01.478Z,3.83
2017-12-14T22:35:30.439Z,5.00
2017-12-14T22:37:59.018Z,5.73
2017-12-14T22:40:27.461Z,5.57
2017-12-14T22:42:55.923Z,4.90
2017-12-14T22:45:26.284Z,3.40
2017-12-14T22:47:55.377Z,3.03
2017-12-14T22:50:24.519Z,5.97
2017-12-14T22:52:53.277Z,3.70
2017-12-14T22:55:22.976Z,3.87
2017-12-14T22:57:52.686Z,2.97
2017-12-14T23:00:24.314Z,2.40
2017-12-14T23:02:55.679Z,3.00
2017-12-14T23:05:25.051Z,2.80
2017-12-14T23:07:53.768Z,2.97
2017-12-14T23:10:22.173Z,3.40
2017-12-14T23:12:50.624Z,4.37
2017-12-14T23:15:19.271Z,4.40
2017-12-14T23:17:48.875Z,2.30
2017-12-14T23:20:17.286Z,3.57
2017-12-14T23:22:45.845Z,4.53
2017-12-14T23:25:14.264Z,3.57
2017-12-14T23:27:42.682Z,3.00
2017-12-14T23:30:12.374Z,3.77
2017-12-14T23:32:41.606Z,2.00
2017-12-14T23:35:10.035Z,4.43
2017-12-14T23:37:38.948Z,3.57
2017-12-14T23:40:08.142Z,3.37
2017-12-14T23:42:37.723Z,4.60
2017-12-14T23:45:06.184Z,3.80
2017-12-14T23:47:34.585Z,3.43
2017-12-14T23:50:02.985Z,4.03
2017-12-14T23:52:32.196Z,3.10
2017-12-14T23:55:01.383Z,2.40
2017-12-14T23:57:30.902Z,2.47
2017-12-14T23:59:59.414Z,3.10
